MSC Suez — HPMS — position and weather

sailwx.info

Track history (hours):
 
Tides and Currents Weather Stations Pressure Air Temp Water Temp Dewpoint Dewpoint Depression Visibility Wind Speed Wind Dir Waves Ship Positions

MSC Suez

Last reported at 2015-Feb-01 00:30 UTC. Time now 2015-Feb-01 00:37 UTC.
Position N 54°57' E 010°57'.

Length 237 m; draft 8.4 m.

Type: Cargo ship. MMSI: 355289000.

Date/timePositionNaut miles runAvg speedWind from/ knotsBaromVisibWave heightAir tempDewpointWater temp
2015-Feb-01 00:30N 54°57' E 010°57'10515.2
2015-Jan-31 17:33N 56°39' E 011°45'1515.1
2015-Jan-31 16:33N 56°54' E 011°46'1716.6
2015-Jan-31 15:33N 57°10' E 011°36'1716.8
2015-Jan-31 14:33N 57°25' E 011°25'1616.2
2015-Jan-31 13:33N 57°37' E 011°04'1616.4
2015-Jan-31 12:33N 57°48' E 010°42'16116.0
2015-Jan-31 02:32N 56°02' E 006°60'1716.8
2015-Jan-31 01:33N 55°49' E 006°43'1716.8
2015-Jan-31 00:33N 55°35' E 006°27'1716.8
2015-Jan-30 23:33N 55°20' E 006°11'6716.7
2015-Jan-30 19:32N 54°23' E 005°12'1616.5
2015-Jan-30 18:33N 54°09' E 004°58'1616.3
2015-Jan-30 17:33N 53°53' E 004°53'1716.9
2015-Jan-30 16:33N 53°36' E 004°50'1716.9
2015-Jan-30 15:33N 53°20' E 004°39'1717.2
2015-Jan-30 14:33N 53°05' E 004°25'1717.1
2015-Jan-30 13:33N 52°50' E 004°13'1717.4
2015-Jan-30 12:33N 52°37' E 003°54'1717.2
2015-Jan-30 11:33N 52°24' E 003°36'1717.4
2015-Jan-30 10:33N 52°07' E 003°26'1717.1
2015-Jan-30 09:33N 51°51' E 003°20'1312.9
2015-Jan-30 08:33N 51°39' E 003°11'1514.8
2015-Jan-30 07:32N 51°25' E 003°03'1716.9
2015-Jan-30 06:33N 51°25' E 003°30'8 7.7
2015-Jan-30 05:33N 51°25' E 003°42'9 9.4
2015-Jan-30 04:33N 51°24' E 003°57'8 8.3
2015-Jan-30 03:33N 51°24' E 004°10'5 5.2
2015-Jan-30 02:33N 51°21' E 004°17'2 1.5
2015-Jan-30 01:33N 51°19' E 004°19'1 0.8
2015-Jan-30 00:33N 51°20' E 004°20'0 0.0
2015-Jan-29 23:33N 51°20' E 004°20'0 0.0
2015-Jan-29 22:33N 51°20' E 004°20'0 0.0
2015-Jan-29 21:33N 51°20' E 004°20'0 0.0
2015-Jan-29 20:27N 51°20' E 004°20'0 0.0
2015-Jan-29 19:33N 51°20' E 004°20'0 0.0
2015-Jan-29 18:33N 51°20' E 004°20'0 0.0
2015-Jan-29 17:33N 51°20' E 004°20'0 0.0
2015-Jan-29 16:27N 51°20' E 004°20'0 0.0
2015-Jan-29 15:33N 51°20' E 004°20'0 0.0
2015-Jan-29 14:33N 51°20' E 004°20'0 0.0
2015-Jan-29 13:33N 51°20' E 004°20'0 0.0
2015-Jan-29 12:33N 51°20' E 004°20'0 0.0
2015-Jan-29 11:33N 51°20' E 004°20'0 0.0
2015-Jan-29 10:33N 51°20' E 004°20'0 0.0
2015-Jan-29 09:33N 51°20' E 004°20'0 0.0
2015-Jan-29 08:33N 51°20' E 004°20'0 0.0
2015-Jan-29 07:33N 51°20' E 004°20'0 0.0
2015-Jan-29 06:33N 51°20' E 004°20'0 0.0
2015-Jan-29 05:33N 51°20' E 004°20'0 0.0
2015-Jan-29 04:33N 51°20' E 004°20'0 0.0
2015-Jan-29 03:33N 51°20' E 004°20'1 1.1
2015-Jan-29 02:33N 51°20' E 004°18'1 1.3
2015-Jan-29 01:33N 51°21' E 004°17'1 0.9
2015-Jan-29 00:34N 51°21' E 004°16'6 5.5
2015-Jan-28 23:33N 51°22' E 004°07'6 6.5
2015-Jan-28 22:33N 51°23' E 003°57'10 9.6
2015-Jan-28 21:33N 51°25' E 003°42'1313.4
2015-Jan-28 20:34N 51°24' E 003°20'1818.2
2015-Jan-28 19:33N 51°22' E 002°52'8 8.0
2015-Jan-28 18:33N 51°22' E 002°39'7 7.0
2015-Jan-28 17:33N 51°21' E 002°27'1917.5
2015-Jan-28 16:29N 51°13' E 002°01'1617.6
2015-Jan-28 15:33N 51°04' E 001°39'1717.2
2015-Jan-28 14:33N 50°49' E 001°25'35617.6
2015-Jan-27 18:21N 47°47' W 006°24'44417.9
2015-Jan-26 17:32N 40°49' W 009°50'4217.5
2015-Jan-26 15:09N 40°07' W 009°50'1217.3
2015-Jan-26 14:29N 39°56' W 009°50'1617.3
2015-Jan-26 13:33N 39°39' W 009°50'2117.3
2015-Jan-26 12:22N 39°19' W 009°51'1417.3
2015-Jan-26 11:33N 39°05' W 009°50'1717.3
2015-Jan-26 10:33N 38°48' W 009°51'1817.5
2015-Jan-26 09:33N 38°30' W 009°51'1817.6
2015-Jan-26 08:33N 38°12' W 009°51'1817.8
2015-Jan-26 07:33N 37°55' W 009°51'1717.4
2015-Jan-26 06:33N 37°37' W 009°53'1817.8
2015-Jan-26 05:33N 37°20' W 009°53'1817.8
2015-Jan-26 04:33N 37°02' W 009°53'1817.8
2015-Jan-26 03:33N 36°44' W 009°54'1817.9
2015-Jan-26 02:33N 36°26' W 009°55'1817.9
2015-Jan-26 01:33N 36°08' W 009°56'2317.7
2015-Jan-26 00:16N 35°46' W 009°56'3117.9
2015-Jan-25 22:33N 35°15' W 009°59'1818.3
2015-Jan-25 21:33N 34°57' W 009°60'  
Track history (hours):
 
Tides and Currents Weather Stations Pressure Air Temp Water Temp Dewpoint Dewpoint Depression Visibility Wind Speed Wind Dir Waves Ship Positions

MSC Suez

Last reported at 2015-Feb-01 00:30 UTC. Time now 2015-Feb-01 00:37 UTC.
Position N 54°57' E 010°57'.

Length 237 m; draft 8.4 m.

Type: Cargo ship. MMSI: 355289000.

Date/timePositionNaut miles runAvg speedWind from/ knotsBaromVisibWave heightAir tempDewpointWater temp
2015-Feb-01 00:30N 54°57' E 010°57'10515.2
2015-Jan-31 17:33N 56°39' E 011°45'1515.1
2015-Jan-31 16:33N 56°54' E 011°46'1716.6
2015-Jan-31 15:33N 57°10' E 011°36'1716.8
2015-Jan-31 14:33N 57°25' E 011°25'1616.2
2015-Jan-31 13:33N 57°37' E 011°04'1616.4
2015-Jan-31 12:33N 57°48' E 010°42'16116.0
2015-Jan-31 02:32N 56°02' E 006°60'1716.8
2015-Jan-31 01:33N 55°49' E 006°43'1716.8
2015-Jan-31 00:33N 55°35' E 006°27'1716.8
2015-Jan-30 23:33N 55°20' E 006°11'6716.7
2015-Jan-30 19:32N 54°23' E 005°12'1616.5
2015-Jan-30 18:33N 54°09' E 004°58'1616.3
2015-Jan-30 17:33N 53°53' E 004°53'1716.9
2015-Jan-30 16:33N 53°36' E 004°50'1716.9
2015-Jan-30 15:33N 53°20' E 004°39'1717.2
2015-Jan-30 14:33N 53°05' E 004°25'1717.1
2015-Jan-30 13:33N 52°50' E 004°13'1717.4
2015-Jan-30 12:33N 52°37' E 003°54'1717.2
2015-Jan-30 11:33N 52°24' E 003°36'1717.4
2015-Jan-30 10:33N 52°07' E 003°26'1717.1
2015-Jan-30 09:33N 51°51' E 003°20'1312.9
2015-Jan-30 08:33N 51°39' E 003°11'1514.8
2015-Jan-30 07:32N 51°25' E 003°03'1716.9
2015-Jan-30 06:33N 51°25' E 003°30'8 7.7
2015-Jan-30 05:33N 51°25' E 003°42'9 9.4
2015-Jan-30 04:33N 51°24' E 003°57'8 8.3
2015-Jan-30 03:33N 51°24' E 004°10'5 5.2
2015-Jan-30 02:33N 51°21' E 004°17'2 1.5
2015-Jan-30 01:33N 51°19' E 004°19'1 0.8
2015-Jan-30 00:33N 51°20' E 004°20'0 0.0
2015-Jan-29 23:33N 51°20' E 004°20'0 0.0
2015-Jan-29 22:33N 51°20' E 004°20'0 0.0
2015-Jan-29 21:33N 51°20' E 004°20'0 0.0
2015-Jan-29 20:27N 51°20' E 004°20'0 0.0
2015-Jan-29 19:33N 51°20' E 004°20'0 0.0
2015-Jan-29 18:33N 51°20' E 004°20'0 0.0
2015-Jan-29 17:33N 51°20' E 004°20'0 0.0
2015-Jan-29 16:27N 51°20' E 004°20'0 0.0
2015-Jan-29 15:33N 51°20' E 004°20'0 0.0
2015-Jan-29 14:33N 51°20' E 004°20'0 0.0
2015-Jan-29 13:33N 51°20' E 004°20'0 0.0
2015-Jan-29 12:33N 51°20' E 004°20'0 0.0
2015-Jan-29 11:33N 51°20' E 004°20'0 0.0
2015-Jan-29 10:33N 51°20' E 004°20'0 0.0
2015-Jan-29 09:33N 51°20' E 004°20'0 0.0
2015-Jan-29 08:33N 51°20' E 004°20'0 0.0
2015-Jan-29 07:33N 51°20' E 004°20'0 0.0
2015-Jan-29 06:33N 51°20' E 004°20'0 0.0
2015-Jan-29 05:33N 51°20' E 004°20'0 0.0
2015-Jan-29 04:33N 51°20' E 004°20'0 0.0
2015-Jan-29 03:33N 51°20' E 004°20'1 1.1
2015-Jan-29 02:33N 51°20' E 004°18'1 1.3
2015-Jan-29 01:33N 51°21' E 004°17'1 0.9
2015-Jan-29 00:34N 51°21' E 004°16'6 5.5
2015-Jan-28 23:33N 51°22' E 004°07'6 6.5
2015-Jan-28 22:33N 51°23' E 003°57'10 9.6
2015-Jan-28 21:33N 51°25' E 003°42'1313.4
2015-Jan-28 20:34N 51°24' E 003°20'1818.2
2015-Jan-28 19:33N 51°22' E 002°52'8 8.0
2015-Jan-28 18:33N 51°22' E 002°39'7 7.0
2015-Jan-28 17:33N 51°21' E 002°27'1917.5
2015-Jan-28 16:29N 51°13' E 002°01'1617.6
2015-Jan-28 15:33N 51°04' E 001°39'1717.2
2015-Jan-28 14:33N 50°49' E 001°25'35617.6
2015-Jan-27 18:21N 47°47' W 006°24'44417.9
2015-Jan-26 17:32N 40°49' W 009°50'4217.5
2015-Jan-26 15:09N 40°07' W 009°50'1217.3
2015-Jan-26 14:29N 39°56' W 009°50'1617.3
2015-Jan-26 13:33N 39°39' W 009°50'2117.3
2015-Jan-26 12:22N 39°19' W 009°51'1417.3
2015-Jan-26 11:33N 39°05' W 009°50'1717.3
2015-Jan-26 10:33N 38°48' W 009°51'1817.5
2015-Jan-26 09:33N 38°30' W 009°51'1817.6
2015-Jan-26 08:33N 38°12' W 009°51'1817.8
2015-Jan-26 07:33N 37°55' W 009°51'1717.4
2015-Jan-26 06:33N 37°37' W 009°53'1817.8
2015-Jan-26 05:33N 37°20' W 009°53'1817.8
2015-Jan-26 04:33N 37°02' W 009°53'1817.8
2015-Jan-26 03:33N 36°44' W 009°54'1817.9
2015-Jan-26 02:33N 36°26' W 009°55'1817.9
2015-Jan-26 01:33N 36°08' W 009°56'2317.7
2015-Jan-26 00:16N 35°46' W 009°56'3117.9
2015-Jan-25 22:33N 35°15' W 009°59'1818.3
2015-Jan-25 21:33N 34°57' W 009°60'  

Dump ship's entire track history